sensor_id;sensor_type;location;lat;lon;timestamp;pressure;altitude;pressure_sealevel;temperature;humidity
80180;BME280;69505;52.134;5.438;2023-11-22T00:02:17;103029.88;;;3.21;100.00
80180;BME280;69505;52.134;5.438;2023-11-22T00:04:44;103031.66;;;3.20;100.00
80180;BME280;69505;52.134;5.438;2023-11-22T00:07:10;103030.72;;;3.24;100.00
80180;BME280;69505;52.134;5.438;2023-11-22T00:09:37;103025.53;;;3.21;100.00
80180;BME280;69505;52.134;5.438;2023-11-22T00:12:04;103040.38;;;3.24;100.00
80180;BME280;69505;52.134;5.438;2023-11-22T00:14:31;103041.22;;;3.26;100.00
80180;BME280;69505;52.134;5.438;2023-11-22T00:16:58;103050.81;;;3.29;100.00
80180;BME280;69505;52.134;5.438;2023-11-22T00:19:25;103058.75;;;3.22;100.00
80180;BME280;69505;52.134;5.438;2023-11-22T00:21:51;103064.06;;;3.16;100.00
80180;BME280;69505;52.134;5.438;2023-11-22T00:24:18;103067.59;;;3.15;100.00
80180;BME280;69505;52.134;5.438;2023-11-22T00:26:45;103065.84;;;3.14;100.00
80180;BME280;69505;52.134;5.438;2023-11-22T00:29:12;103067.56;;;3.18;100.00
80180;BME280;69505;52.134;5.438;2023-11-22T00:31:38;103065.81;;;3.17;100.00
80180;BME280;69505;52.134;5.438;2023-11-22T00:34:06;103073.72;;;3.16;100.00
80180;BME280;69505;52.134;5.438;2023-11-22T00:36:33;103076.34;;;3.14;100.00
80180;BME280;69505;52.134;5.438;2023-11-22T00:39:00;103074.56;;;3.19;100.00
80180;BME280;69505;52.134;5.438;2023-11-22T00:41:31;103071.03;;;3.23;100.00
80180;BME280;69505;52.134;5.438;2023-11-22T00:43:58;103064.84;;;3.28;100.00
80180;BME280;69505;52.134;5.438;2023-11-22T00:46:25;103057.78;;;3.30;100.00
80180;BME280;69505;52.134;5.438;2023-11-22T00:48:51;103057.84;;;3.28;100.00
80180;BME280;69505;52.134;5.438;2023-11-22T00:51:18;103057.84;;;3.25;100.00
80180;BME280;69505;52.134;5.438;2023-11-22T00:53:46;103064.00;;;3.24;100.00
80180;BME280;69505;52.134;5.438;2023-11-22T00:56:12;103071.94;;;3.15;100.00
80180;BME280;69505;52.134;5.438;2023-11-22T00:58:39;103075.44;;;3.17;100.00
80180;BME280;69505;52.134;5.438;2023-11-22T01:01:06;103084.28;;;3.08;100.00
80180;BME280;69505;52.134;5.438;2023-11-22T01:03:33;103088.72;;;3.00;100.00
80180;BME280;69505;52.134;5.438;2023-11-22T01:06:00;103093.16;;;2.92;100.00
80180;BME280;69505;52.134;5.438;2023-11-22T01:08:26;103094.91;;;2.91;100.00
80180;BME280;69505;52.134;5.438;2023-11-22T01:10:53;103107.19;;;2.91;100.00
80180;BME280;69505;52.134;5.438;2023-11-22T01:13:19;103112.50;;;2.78;100.00
80180;BME280;69505;52.134;5.438;2023-11-22T01:15:48;103111.69;;;2.70;100.00
80180;BME280;69505;52.134;5.438;2023-11-22T01:18:15;103134.47;;;2.65;100.00
80180;BME280;69505;52.134;5.438;2023-11-22T01:20:42;103133.63;;;2.61;100.00
80180;BME280;69505;52.134;5.438;2023-11-22T01:23:08;103124.84;;;2.64;100.00
80180;BME280;69505;52.134;5.438;2023-11-22T01:25:35;103139.75;;;2.59;100.00
80180;BME280;69505;52.134;5.438;2023-11-22T01:28:02;103131.97;;;2.48;100.00
80180;BME280;69505;52.134;5.438;2023-11-22T01:30:29;103136.34;;;2.41;100.00
80180;BME280;69505;52.134;5.438;2023-11-22T01:32:56;103144.25;;;2.37;100.00
80180;BME280;69505;52.134;5.438;2023-11-22T01:35:22;103141.66;;;2.32;100.00
80180;BME280;69505;52.134;5.438;2023-11-22T01:37:49;103138.19;;;2.27;100.00
80180;BME280;69505;52.134;5.438;2023-11-22T01:40:16;103136.44;;;2.28;100.00
80180;BME280;69505;52.134;5.438;2023-11-22T01:42:43;103138.19;;;2.26;100.00
80180;BME280;69505;52.134;5.438;2023-11-22T01:45:09;103145.19;;;2.20;100.00
80180;BME280;69505;52.134;5.438;2023-11-22T01:47:37;103143.47;;;2.21;100.00
80180;BME280;69505;52.134;5.438;2023-11-22T01:50:06;103134.72;;;2.16;100.00
80180;BME280;69505;52.134;5.438;2023-11-22T01:52:33;103133.88;;;2.15;100.00
80180;BME280;69505;52.134;5.438;2023-11-22T01:55:01;103133.00;;;2.12;100.00
80180;BME280;69505;52.134;5.438;2023-11-22T01:57:32;103138.28;;;2.10;100.00
80180;BME280;69505;52.134;5.438;2023-11-22T02:00:03;103138.25;;;2.09;100.00
80180;BME280;69505;52.134;5.438;2023-11-22T02:02:30;103136.53;;;2.06;100.00
80180;BME280;69505;52.134;5.438;2023-11-22T02:04:58;103143.50;;;2.06;100.00
80180;BME280;69505;52.134;5.438;2023-11-22T02:07:27;103144.41;;;2.06;100.00
80180;BME280;69505;52.134;5.438;2023-11-22T02:09:53;103145.28;;;2.00;100.00
80180;BME280;69505;52.134;5.438;2023-11-22T02:12:20;103140.06;;;1.96;100.00
80180;BME280;69505;52.134;5.438;2023-11-22T02:14:47;103140.03;;;2.00;100.00
80180;BME280;69505;52.134;5.438;2023-11-22T02:17:14;103144.41;;;2.05;100.00
80180;BME280;69505;52.134;5.438;2023-11-22T02:19:40;103140.00;;;2.03;100.00
80180;BME280;69505;52.134;5.438;2023-11-22T02:22:07;103151.38;;;2.01;100.00
80180;BME280;69505;52.134;5.438;2023-11-22T02:24:33;103147.03;;;1.98;100.00
80180;BME280;69505;52.134;5.438;2023-11-22T02:27:00;103151.44;;;1.93;100.00
80180;BME280;69505;52.134;5.438;2023-11-22T02:29:27;103150.56;;;1.88;100.00
80180;BME280;69505;52.134;5.438;2023-11-22T02:31:55;103146.19;;;1.84;100.00
80180;BME280;69505;52.134;5.438;2023-11-22T02:34:22;103139.22;;;1.83;100.00
80180;BME280;69505;52.134;5.438;2023-11-22T02:36:49;103144.44;;;1.88;100.00
80180;BME280;69505;52.134;5.438;2023-11-22T02:39:37;103126.13;;;1.81;100.00
80180;BME280;69505;52.134;5.438;2023-11-22T02:42:07;103130.47;;;1.84;100.00
80180;BME280;69505;52.134;5.438;2023-11-22T02:44:35;103135.72;;;1.76;100.00
80180;BME280;69505;52.134;5.438;2023-11-22T02:47:02;103134.88;;;1.70;100.00
80180;BME280;69505;52.134;5.438;2023-11-22T02:49:28;103133.16;;;1.62;100.00
80180;BME280;69505;52.134;5.438;2023-11-22T02:51:55;103127.91;;;1.66;100.00
80180;BME280;69505;52.134;5.438;2023-11-22T02:54:22;103122.69;;;1.62;100.00
80180;BME280;69505;52.134;5.438;2023-11-22T02:56:49;103120.09;;;1.55;100.00
80180;BME280;69505;52.134;5.438;2023-11-22T02:59:15;103120.09;;;1.50;100.00
80180;BME280;69505;52.134;5.438;2023-11-22T03:01:42;103113.97;;;1.47;100.00
80180;BME280;69505;52.134;5.438;2023-11-22T03:04:09;103120.97;;;1.45;100.00
80180;BME280;69505;52.134;5.438;2023-11-22T03:06:36;103132.31;;;1.42;100.00
80180;BME280;69505;52.134;5.438;2023-11-22T03:09:03;103122.75;;;1.32;100.00
80180;BME280;69505;52.134;5.438;2023-11-22T03:11:30;103134.06;;;1.32;100.00
80180;BME280;69505;52.134;5.438;2023-11-22T03:13:58;103137.56;;;1.30;100.00
80180;BME280;69505;52.134;5.438;2023-11-22T03:16:25;103140.19;;;1.24;100.00
80180;BME280;69505;52.134;5.438;2023-11-22T03:18:52;103148.94;;;1.23;100.00
80180;BME280;69505;52.134;5.438;2023-11-22T03:21:20;103156.75;;;1.19;100.00
80180;BME280;69505;52.134;5.438;2023-11-22T03:23:47;103150.66;;;1.14;100.00
80180;BME280;69505;52.134;5.438;2023-11-22T03:26:13;103156.75;;;1.19;100.00
80180;BME280;69505;52.134;5.438;2023-11-22T03:28:40;103161.16;;;1.20;100.00
80180;BME280;69505;52.134;5.438;2023-11-22T03:31:07;103162.88;;;1.18;100.00
80180;BME280;69505;52.134;5.438;2023-11-22T03:33:34;103176.84;;;1.27;100.00
80180;BME280;69505;52.134;5.438;2023-11-22T03:36:01;103185.56;;;1.19;100.00
80180;BME280;69505;52.134;5.438;2023-11-22T03:38:28;103189.94;;;1.14;100.00
80180;BME280;69505;52.134;5.438;2023-11-22T03:40:55;103202.13;;;1.15;100.00
80180;BME280;69505;52.134;5.438;2023-11-22T03:43:21;103200.41;;;1.22;100.00
80180;BME280;69505;52.134;5.438;2023-11-22T03:45:48;103196.91;;;1.18;100.00
80180;BME280;69505;52.134;5.438;2023-11-22T03:48:15;103194.28;;;1.14;100.00
80180;BME280;69505;52.134;5.438;2023-11-22T03:50:42;103200.38;;;1.11;100.00
80180;BME280;69505;52.134;5.438;2023-11-22T03:53:08;103210.84;;;1.11;100.00
80180;BME280;69505;52.134;5.438;2023-11-22T03:55:35;103215.22;;;1.09;100.00
80180;BME280;69505;52.134;5.438;2023-11-22T03:58:01;103216.09;;;1.08;100.00
80180;BME280;69505;52.134;5.438;2023-11-22T04:00:28;103232.66;;;1.10;100.00
80180;BME280;69505;52.134;5.438;2023-11-22T04:02:55;103222.22;;;1.23;100.00
80180;BME280;69505;52.134;5.438;2023-11-22T04:05:23;103230.94;;;1.20;100.00
80180;BME280;69505;52.134;5.438;2023-11-22T04:07:50;103244.88;;;1.14;100.00
80180;BME280;69505;52.134;5.438;2023-11-22T04:10:18;103239.66;;;1.14;100.00
80180;BME280;69505;52.134;5.438;2023-11-22T04:12:45;103242.28;;;1.16;100.00
80180;BME280;69505;52.134;5.438;2023-11-22T04:15:12;103251.84;;;1.12;100.00
80180;BME280;69505;52.134;5.438;2023-11-22T04:17:40;103251.84;;;1.12;100.00
80180;BME280;69505;52.134;5.438;2023-11-22T04:20:08;103245.78;;;1.18;100.00
80180;BME280;69505;52.134;5.438;2023-11-22T04:22:37;103247.50;;;1.36;100.00
80180;BME280;69505;52.134;5.438;2023-11-22T04:25:04;103240.56;;;1.35;100.00
80180;BME280;69505;52.134;5.438;2023-11-22T04:27:32;103244.88;;;1.34;100.00
80180;BME280;69505;52.134;5.438;2023-11-22T04:29:58;103248.38;;;1.27;100.00
80180;BME280;69505;52.134;5.438;2023-11-22T04:32:25;103246.66;;;1.20;100.00
80180;BME280;69505;52.134;5.438;2023-11-22T04:34:52;103259.72;;;1.18;100.00
80180;BME280;69505;52.134;5.438;2023-11-22T04:37:18;103265.81;;;1.16;100.00
80180;BME280;69505;52.134;5.438;2023-11-22T04:39:45;103261.47;;;1.18;100.00
80180;BME280;69505;52.134;5.438;2023-11-22T04:42:11;103258.84;;;1.16;100.00
80180;BME280;69505;52.134;5.438;2023-11-22T04:44:38;103255.31;;;1.11;100.00
80180;BME280;69505;52.134;5.438;2023-11-22T04:47:05;103261.44;;;1.10;100.00
80180;BME280;69505;52.134;5.438;2023-11-22T04:49:32;103261.44;;;1.04;100.00
80180;BME280;69505;52.134;5.438;2023-11-22T04:51:59;103253.59;;;1.01;100.00
80180;BME280;69505;52.134;5.438;2023-11-22T04:54:25;103260.53;;;1.00;100.00
80180;BME280;69505;52.134;5.438;2023-11-22T04:56:52;103257.06;;;1.05;100.00
80180;BME280;69505;52.134;5.438;2023-11-22T04:59:19;103257.09;;;1.03;100.00
80180;BME280;69505;52.134;5.438;2023-11-22T05:01:45;103244.88;;;1.08;100.00
80180;BME280;69505;52.134;5.438;2023-11-22T05:04:12;103244.00;;;1.17;100.00
80180;BME280;69505;52.134;5.438;2023-11-22T05:06:39;103249.25;;;1.09;100.00
80180;BME280;69505;52.134;5.438;2023-11-22T05:09:05;103249.22;;;1.06;100.00
80180;BME280;69505;52.134;5.438;2023-11-22T05:11:32;103246.63;;;1.09;100.00
80180;BME280;69505;52.134;5.438;2023-11-22T05:13:59;103239.63;;;1.08;100.00
80180;BME280;69505;52.134;5.438;2023-11-22T05:16:25;103248.38;;;1.07;100.00
80180;BME280;69505;52.134;5.438;2023-11-22T05:18:52;103244.88;;;1.08;100.00
80180;BME280;69505;52.134;5.438;2023-11-22T05:21:18;103237.91;;;1.12;100.00
80180;BME280;69505;52.134;5.438;2023-11-22T05:23:45;103248.38;;;1.19;100.00
80180;BME280;69505;52.134;5.438;2023-11-22T05:26:12;103245.75;;;1.16;100.00
80180;BME280;69505;52.134;5.438;2023-11-22T05:28:39;103247.50;;;1.17;100.00
80180;BME280;69505;52.134;5.438;2023-11-22T05:31:05;103238.78;;;1.18;100.00
80180;BME280;69505;52.134;5.438;2023-11-22T05:33:32;103242.28;;;1.27;100.00
80180;BME280;69505;52.134;5.438;2023-11-22T05:35:59;103250.13;;;1.24;100.00
80180;BME280;69505;52.134;5.438;2023-11-22T05:38:26;103238.81;;;1.31;100.00
80180;BME280;69505;52.134;5.438;2023-11-22T05:40:53;103250.13;;;1.27;100.00
80180;BME280;69505;52.134;5.438;2023-11-22T05:43:20;103255.38;;;1.27;100.00
80180;BME280;69505;52.134;5.438;2023-11-22T05:45:53;103253.63;;;1.32;100.00
80180;BME280;69505;52.134;5.438;2023-11-22T05:48:20;103272.84;;;1.37;100.00
80180;BME280;69505;52.134;5.438;2023-11-22T05:50:47;103261.47;;;1.32;100.00
80180;BME280;69505;52.134;5.438;2023-11-22T05:53:14;103264.09;;;1.32;100.00
80180;BME280;69505;52.134;5.438;2023-11-22T05:55:49;103260.63;;;1.39;100.00
80180;BME280;69505;52.134;5.438;2023-11-22T05:58:15;103261.47;;;1.49;100.00
80180;BME280;69505;52.134;5.438;2023-11-22T06:00:43;103261.50;;;1.52;100.00
80180;BME280;69505;52.134;5.438;2023-11-22T06:03:11;103265.00;;;1.54;100.00
80180;BME280;69505;52.134;5.438;2023-11-22T06:05:37;103257.13;;;1.55;100.00
80180;BME280;69505;52.134;5.438;2023-11-22T06:08:04;103271.09;;;1.57;100.00
80180;BME280;69505;52.134;5.438;2023-11-22T06:10:31;103270.22;;;1.54;100.00
80180;BME280;69505;52.134;5.438;2023-11-22T06:12:58;103278.94;;;1.59;100.00
80180;BME280;69505;52.134;5.438;2023-11-22T06:15:24;103270.22;;;1.60;100.00
80180;BME280;69505;52.134;5.438;2023-11-22T06:17:51;103258.88;;;1.61;100.00
80180;BME280;69505;52.134;5.438;2023-11-22T06:20:18;103258.88;;;1.59;100.00
80180;BME280;69505;52.134;5.438;2023-11-22T06:22:45;103263.22;;;1.63;100.00
80180;BME280;69505;52.134;5.438;2023-11-22T06:25:11;103276.34;;;1.60;100.00
80180;BME280;69505;52.134;5.438;2023-11-22T06:27:38;103271.09;;;1.57;100.00
80180;BME280;69505;52.134;5.438;2023-11-22T06:30:06;103292.03;;;1.54;100.00
80180;BME280;69505;52.134;5.438;2023-11-22T06:32:35;103300.78;;;1.50;100.00
80180;BME280;69505;52.134;5.438;2023-11-22T06:35:02;103299.88;;;1.53;100.00
80180;BME280;69505;52.134;5.438;2023-11-22T06:37:29;103300.78;;;1.56;100.00
80180;BME280;69505;52.134;5.438;2023-11-22T06:39:56;103296.41;;;1.61;100.00
80180;BME280;69505;52.134;5.438;2023-11-22T06:42:24;103285.06;;;1.66;100.00
80180;BME280;69505;52.134;5.438;2023-11-22T06:44:50;103284.19;;;1.67;100.00
80180;BME280;69505;52.134;5.438;2023-11-22T06:47:19;103278.06;;;1.68;100.00
80180;BME280;69505;52.134;5.438;2023-11-22T06:49:46;103272.84;;;1.65;100.00
80180;BME280;69505;52.134;5.438;2023-11-22T06:52:13;103260.59;;;1.57;100.00
80180;BME280;69505;52.134;5.438;2023-11-22T06:54:39;103260.63;;;1.60;100.00
80180;BME280;69505;52.134;5.438;2023-11-22T06:57:06;103262.34;;;1.61;100.00
80180;BME280;69505;52.134;5.438;2023-11-22T06:59:32;103259.75;;;1.63;100.00
80180;BME280;69505;52.134;5.438;2023-11-22T07:01:59;103264.13;;;1.64;100.00
80180;BME280;69505;52.134;5.438;2023-11-22T07:04:26;103266.75;;;1.64;100.00
80180;BME280;69505;52.134;5.438;2023-11-22T07:06:54;103264.09;;;1.66;100.00
80180;BME280;69505;52.134;5.438;2023-11-22T07:09:20;103267.59;;;1.68;100.00
80180;BME280;69505;52.134;5.438;2023-11-22T07:11:47;103274.56;;;1.66;100.00
80180;BME280;69505;52.134;5.438;2023-11-22T07:14:13;103276.34;;;1.62;100.00
80180;BME280;69505;52.134;5.438;2023-11-22T07:16:40;103284.19;;;1.60;100.00
80180;BME280;69505;52.134;5.438;2023-11-22T07:19:07;103286.81;;;1.71;100.00
80180;BME280;69505;52.134;5.438;2023-11-22T07:21:34;103291.16;;;1.74;100.00
80180;BME280;69505;52.134;5.438;2023-11-22T07:24:04;103293.81;;;1.77;100.00
80180;BME280;69505;52.134;5.438;2023-11-22T07:26:33;103285.06;;;1.78;100.00
80180;BME280;69505;52.134;5.438;2023-11-22T07:29:00;103272.84;;;1.77;100.00
80180;BME280;69505;52.134;5.438;2023-11-22T07:31:26;103281.59;;;1.79;100.00
80180;BME280;69505;52.134;5.438;2023-11-22T07:33:53;103271.09;;;1.79;100.00
80180;BME280;69505;52.134;5.438;2023-11-22T07:36:20;103281.59;;;1.79;100.00
80180;BME280;69505;52.134;5.438;2023-11-22T07:38:47;103288.56;;;1.80;100.00
80180;BME280;69505;52.134;5.438;2023-11-22T07:41:14;103290.28;;;1.78;100.00
80180;BME280;69505;52.134;5.438;2023-11-22T07:43:42;103295.56;;;1.81;100.00
80180;BME280;69505;52.134;5.438;2023-11-22T07:46:08;103292.06;;;1.79;100.00
80180;BME280;69505;52.134;5.438;2023-11-22T07:48:40;103293.81;;;1.77;100.00
80180;BME280;69505;52.134;5.438;2023-11-22T07:51:09;103291.16;;;1.78;100.00
80180;BME280;69505;52.134;5.438;2023-11-22T07:53:36;103287.69;;;1.79;100.00
80180;BME280;69505;52.134;5.438;2023-11-22T07:56:03;103286.81;;;1.79;100.00
80180;BME280;69505;52.134;5.438;2023-11-22T07:58:31;103300.78;;;1.81;100.00
80180;BME280;69505;52.134;5.438;2023-11-22T08:01:00;103300.78;;;1.82;100.00
80180;BME280;69505;52.134;5.438;2023-11-22T08:03:31;103307.75;;;1.82;100.00
80180;BME280;69505;52.134;5.438;2023-11-22T08:05:58;103320.88;;;1.88;100.00
80180;BME280;69505;52.134;5.438;2023-11-22T08:08:26;103330.47;;;1.92;100.00
80180;BME280;69505;52.134;5.438;2023-11-22T08:10:53;103345.31;;;1.89;100.00
80180;BME280;69505;52.134;5.438;2023-11-22T08:13:20;103340.97;;;1.89;100.00
80180;BME280;69505;52.134;5.438;2023-11-22T08:15:49;103356.69;;;1.95;100.00
80180;BME280;69505;52.134;5.438;2023-11-22T08:18:15;103355.81;;;1.93;100.00
80180;BME280;69505;52.134;5.438;2023-11-22T08:20:43;103358.44;;;2.02;100.00
80180;BME280;69505;52.134;5.438;2023-11-22T08:23:10;103351.44;;;2.05;100.00
80180;BME280;69505;52.134;5.438;2023-11-22T08:25:39;103346.19;;;2.05;100.00
80180;BME280;69505;52.134;5.438;2023-11-22T08:28:09;103361.91;;;2.11;100.00
80180;BME280;69505;52.134;5.438;2023-11-22T08:30:36;103361.91;;;2.11;100.00
80180;BME280;69505;52.134;5.438;2023-11-22T08:33:03;103353.16;;;2.18;100.00
80180;BME280;69505;52.134;5.438;2023-11-22T08:35:30;103346.19;;;2.21;100.00
80180;BME280;69505;52.134;5.438;2023-11-22T08:37:57;103350.56;;;2.27;100.00
80180;BME280;69505;52.134;5.438;2023-11-22T08:40:24;103353.16;;;2.32;100.00
80180;BME280;69505;52.134;5.438;2023-11-22T08:42:52;103352.28;;;2.36;100.00
80180;BME280;69505;52.134;5.438;2023-11-22T08:45:19;103349.63;;;2.43;100.00
80180;BME280;69505;52.134;5.438;2023-11-22T08:47:46;103347.88;;;2.49;100.00
80180;BME280;69505;52.134;5.438;2023-11-22T08:50:13;103342.63;;;2.52;100.00
80180;BME280;69505;52.134;5.438;2023-11-22T08:52:39;103340.88;;;2.54;100.00
80180;BME280;69505;52.134;5.438;2023-11-22T08:55:08;103353.09;;;2.61;100.00
80180;BME280;69505;52.134;5.438;2023-11-22T08:57:36;103344.31;;;2.68;100.00
80180;BME280;69505;52.134;5.438;2023-11-22T09:00:07;103337.31;;;2.70;100.00
80180;BME280;69505;52.134;5.438;2023-11-22T09:02:36;103339.06;;;2.77;100.00
80180;BME280;69505;52.134;5.438;2023-11-22T09:05:04;103346.88;;;2.85;100.00
80180;BME280;69505;52.134;5.438;2023-11-22T09:07:33;103347.72;;;2.92;100.00
80180;BME280;69505;52.134;5.438;2023-11-22T09:10:04;103345.09;;;2.99;100.00
80180;BME280;69505;52.134;5.438;2023-11-22T09:12:37;103349.44;;;3.02;100.00
80180;BME280;69505;52.134;5.438;2023-11-22T09:15:11;103348.56;;;3.08;100.00
80180;BME280;69505;52.134;5.438;2023-11-22T09:17:44;103338.03;;;3.14;100.00
80180;BME280;69505;52.134;5.438;2023-11-22T09:20:13;103344.97;;;3.21;100.00
80180;BME280;69505;52.134;5.438;2023-11-22T09:22:49;103355.47;;;3.25;100.00
80180;BME280;69505;52.134;5.438;2023-11-22T09:25:24;103349.28;;;3.34;100.00
80180;BME280;69505;52.134;5.438;2023-11-22T09:27:52;103348.41;;;3.35;100.00
80180;BME280;69505;52.134;5.438;2023-11-22T09:30:24;103359.78;;;3.40;100.00
80180;BME280;69505;52.134;5.438;2023-11-22T09:33:09;103355.34;;;3.44;100.00
80180;BME280;69505;52.134;5.438;2023-11-22T09:35:37;103350.06;;;3.53;100.00
80180;BME280;69505;52.134;5.438;2023-11-22T09:38:06;103356.13;;;3.58;100.00
80180;BME280;69505;52.134;5.438;2023-11-22T09:40:45;103353.47;;;3.64;100.00
80180;BME280;69505;52.134;5.438;2023-11-22T09:43:13;103353.44;;;3.69;100.00
80180;BME280;69505;52.134;5.438;2023-11-22T09:45:45;103350.75;;;3.74;100.00
80180;BME280;69505;52.134;5.438;2023-11-22T09:48:20;103349.84;;;3.82;100.00
80180;BME280;69505;52.134;5.438;2023-11-22T09:51:08;103355.97;;;3.83;100.00
80180;BME280;69505;52.134;5.438;2023-11-22T09:53:40;103363.00;;;3.81;100.00
80180;BME280;69505;52.134;5.438;2023-11-22T09:56:08;103351.63;;;3.80;100.00
80180;BME280;69505;52.134;5.438;2023-11-22T09:58:40;103352.44;;;3.84;100.00
80180;BME280;69505;52.134;5.438;2023-11-22T10:01:14;103353.28;;;3.89;100.00
80180;BME280;69505;52.134;5.438;2023-11-22T10:03:41;103355.81;;;4.01;100.00
80180;BME280;69505;52.134;5.438;2023-11-22T10:06:08;103354.06;;;4.03;100.00
80180;BME280;69505;52.134;5.438;2023-11-22T10:08:34;103338.25;;;4.06;100.00
80180;BME280;69505;52.134;5.438;2023-11-22T10:11:04;103340.00;;;4.07;100.00
80180;BME280;69505;52.134;5.438;2023-11-22T10:13:30;103338.22;;;4.10;100.00
80180;BME280;69505;52.134;5.438;2023-11-22T10:16:08;103318.97;;;4.07;100.00
80180;BME280;69505;52.134;5.438;2023-11-22T10:18:42;103318.00;;;4.15;100.00
80180;BME280;69505;52.134;5.438;2023-11-22T10:23:47;103336.38;;;4.18;100.00
80180;BME280;69505;52.134;5.438;2023-11-22T10:26:14;103332.81;;;4.22;100.00
80180;BME280;69505;52.134;5.438;2023-11-22T10:28:42;103321.38;;;4.26;100.00
80180;BME280;69505;52.134;5.438;2023-11-22T10:31:10;103322.19;;;4.34;100.00
80180;BME280;69505;52.134;5.438;2023-11-22T10:33:40;103325.59;;;4.42;100.00
80180;BME280;69505;52.134;5.438;2023-11-22T10:36:10;103314.09;;;4.53;100.00
80180;BME280;69505;52.134;5.438;2023-11-22T10:38:38;103309.69;;;4.55;100.00
80180;BME280;69505;52.134;5.438;2023-11-22T10:41:06;103300.88;;;4.59;100.00
80180;BME280;69505;52.134;5.438;2023-11-22T10:43:35;103306.06;;;4.66;100.00
80180;BME280;69505;52.134;5.438;2023-11-22T10:46:02;103302.53;;;4.66;100.00
80180;BME280;69505;52.134;5.438;2023-11-22T10:48:32;103298.13;;;4.68;100.00
80180;BME280;69505;52.134;5.438;2023-11-22T10:51:04;103279.75;;;4.65;100.00
80180;BME280;69505;52.134;5.438;2023-11-22T10:53:33;103286.72;;;4.69;100.00
80180;BME280;69505;52.134;5.438;2023-11-22T10:56:17;103290.22;;;4.70;100.00
80180;BME280;69505;52.134;5.438;2023-11-22T10:58:50;103284.09;;;4.66;100.00
80180;BME280;69505;52.134;5.438;2023-11-22T11:01:18;103284.16;;;4.64;100.00
80180;BME280;69505;52.134;5.438;2023-11-22T11:03:55;103295.47;;;4.68;100.00
80180;BME280;69505;52.134;5.438;2023-11-22T11:06:25;103296.34;;;4.70;100.00
80180;BME280;69505;52.134;5.438;2023-11-22T11:09:00;103291.94;;;4.72;100.00
80180;BME280;69505;52.134;5.438;2023-11-22T11:11:31;103283.09;;;4.78;100.00
80180;BME280;69505;52.134;5.438;2023-11-22T11:13:59;103267.16;;;4.88;100.00
80180;BME280;69505;52.134;5.438;2023-11-22T11:16:27;103247.56;;;5.08;100.00
80180;BME280;69505;52.134;5.438;2023-11-22T11:18:54;103232.31;;;5.28;100.00
80180;BME280;69505;52.134;5.438;2023-11-22T11:21:21;103228.72;;;5.34;100.00
80180;BME280;69505;52.134;5.438;2023-11-22T11:23:51;103217.25;;;5.37;100.00
80180;BME280;69505;52.134;5.438;2023-11-22T11:26:21;103215.44;;;5.40;100.00
80180;BME280;69505;52.134;5.438;2023-11-22T11:28:51;103213.66;;;5.44;100.00
80180;BME280;69505;52.134;5.438;2023-11-22T11:31:22;103216.34;;;5.39;100.00
80180;BME280;69505;52.134;5.438;2023-11-22T11:36:25;103205.75;;;5.44;100.00
80180;BME280;69505;52.134;5.438;2023-11-22T11:38:53;103192.66;;;5.38;100.00
80180;BME280;69505;52.134;5.438;2023-11-22T11:41:26;103184.81;;;5.33;100.00
80180;BME280;69505;52.134;5.438;2023-11-22T11:43:56;103188.38;;;5.31;100.00
80180;BME280;69505;52.134;5.438;2023-11-22T11:46:23;103190.16;;;5.28;100.00
80180;BME280;69505;52.134;5.438;2023-11-22T11:48:51;103187.63;;;5.22;100.00
80180;BME280;69505;52.134;5.438;2023-11-22T11:51:23;103195.56;;;5.21;100.00
80180;BME280;69505;52.134;5.438;2023-11-22T11:53:51;103198.13;;;5.25;100.00
80180;BME280;69505;52.134;5.438;2023-11-22T11:56:18;103190.22;;;5.25;100.00
80180;BME280;69505;52.134;5.438;2023-11-22T11:58:45;103187.69;;;5.19;100.00
80180;BME280;69505;52.134;5.438;2023-11-22T12:01:13;103185.84;;;5.24;100.00
80180;BME280;69505;52.134;5.438;2023-11-22T12:03:40;103184.13;;;5.23;100.00
80180;BME280;69505;52.134;5.438;2023-11-22T12:06:07;103187.59;;;5.25;100.00
80180;BME280;69505;52.134;5.438;2023-11-22T12:08:34;103177.84;;;5.29;100.00
80180;BME280;69505;52.134;5.438;2023-11-22T12:11:04;103184.78;;;5.35;100.00
80180;BME280;69505;52.134;5.438;2023-11-22T12:13:32;103177.63;;;5.43;100.00
80180;BME280;69505;52.134;5.438;2023-11-22T12:16:01;103182.91;;;5.43;100.00
80180;BME280;69505;52.134;5.438;2023-11-22T12:18:39;103174.16;;;5.39;100.00
80180;BME280;69505;52.134;5.438;2023-11-22T12:21:06;103172.44;;;5.40;100.00
80180;BME280;69505;52.134;5.438;2023-11-22T12:23:33;103172.38;;;5.41;100.00
80180;BME280;69505;52.134;5.438;2023-11-22T12:26:02;103168.00;;;5.42;100.00
80180;BME280;69505;52.134;5.438;2023-11-22T12:28:29;103164.25;;;5.54;100.00
80180;BME280;69505;52.134;5.438;2023-11-22T12:31:09;103155.31;;;5.62;100.00
80180;BME280;69505;52.134;5.438;2023-11-22T12:33:37;103159.38;;;5.80;100.00
80180;BME280;69505;52.134;5.438;2023-11-22T12:36:04;103160.88;;;5.94;100.00
80180;BME280;69505;52.134;5.438;2023-11-22T12:38:31;103152.97;;;5.95;100.00
80180;BME280;69505;52.134;5.438;2023-11-22T12:40:59;103159.97;;;5.96;100.00
80180;BME280;69505;52.134;5.438;2023-11-22T12:43:25;103148.50;;;5.99;100.00
80180;BME280;69505;52.134;5.438;2023-11-22T12:46:08;103146.81;;;5.95;100.00
80180;BME280;69505;52.134;5.438;2023-11-22T12:48:40;103148.69;;;5.88;100.00
80180;BME280;69505;52.134;5.438;2023-11-22T12:51:15;103138.25;;;5.82;100.00
80180;BME280;69505;52.134;5.438;2023-11-22T12:53:46;103133.81;;;5.84;100.00
80180;BME280;69505;52.134;5.438;2023-11-22T12:56:14;103137.38;;;5.81;100.00
80180;BME280;69505;52.134;5.438;2023-11-22T12:58:41;103133.81;;;5.84;100.00
80180;BME280;69505;52.134;5.438;2023-11-22T13:01:08;103131.13;;;5.87;100.00